Time;durP1;ratioP1;P1;durP2;ratioP2;P2;SDS_P1;SDS_P2;PMS_P1;PMS_P2;Temp;Humidity;BMP_temperature;BMP_pressure;BME280_temperature;BME280_humidity;BME280_pressure;Samples;Min_cycle;Max_cycle;Signal;HPM_P1;HPM_P2
2022/08/06 00:01:13;;;;;;;;;;;;;;;31.14;37.75;94630.16;5045027;28;7350;-62
2022/08/06 00:03:49;;;;;;;;;;;;;;;31.13;37.11;94631.44;5054526;28;7401;-62
2022/08/06 00:06:16;;;;;;;;;;;;;;;31.13;36.65;94639.78;5072442;28;9090;-62
2022/08/06 00:08:42;;;;;;;;;;;;;;;31.14;37.68;94657.97;5049455;28;7210;-62
2022/08/06 00:11:10;;;;;;;;;;;;;;;31.14;37.91;94657.97;5072906;28;7245;-62
2022/08/06 00:13:36;;;;;;;;;;;;;;;31.14;36.65;94663.50;5073978;28;7269;-63
2022/08/06 00:16:02;;;;;;;;;;;;;;;31.12;37.40;94652.91;5056062;28;9466;-63
2022/08/06 00:18:36;;;;;;;;;;;;;;;31.12;37.29;94652.91;5065890;28;7100;-62
2022/08/06 00:21:08;;;;;;;;;;;;;;;31.13;37.04;94650.91;5055151;28;8089;-62
2022/08/06 00:23:34;;;;;;;;;;;;;;;31.12;37.68;94646.63;5048888;28;7276;-62
2022/08/06 00:26:00;;;;;;;;;;;;;;;31.11;37.89;94637.56;5072781;28;7028;-63
2022/08/06 00:28:57;;;;;;;;;;;;;;;31.10;37.41;94635.31;5048878;28;8058;-62
2022/08/06 00:31:37;;;;;;;;;;;;;;;31.08;36.96;94644.19;4951566;28;6984;-63
2022/08/06 00:34:21;;;;;;;;;;;;;;;31.07;37.72;94634.38;4951936;28;9059;-63
2022/08/06 00:36:48;;;;;;;;;;;;;;;31.08;37.79;94638.63;4951569;28;7131;-62
2022/08/06 00:39:16;;;;;;;;;;;;;;;31.08;37.25;94637.91;4951561;28;7259;-62
2022/08/06 00:41:43;;;;;;;;;;;;;;;31.08;37.63;94632.34;4949753;28;7064;-62
2022/08/06 00:44:14;;;;;;;;;;;;;;;31.08;36.94;94637.91;4944412;28;7176;-62
2022/08/06 00:46:43;;;;;;;;;;;;;;;31.07;36.99;94628.06;4968437;28;8131;-63
2022/08/06 00:49:11;;;;;;;;;;;;;;;31.08;37.06;94629.56;4961298;28;7011;-62
2022/08/06 00:51:39;;;;;;;;;;;;;;;31.08;37.11;94630.28;4952177;28;7564;-62
2022/08/06 00:54:08;;;;;;;;;;;;;;;31.07;37.19;94631.59;4950590;28;8846;-62
2022/08/06 00:56:34;;;;;;;;;;;;;;;31.07;37.37;94636.41;4960976;28;7230;-62
2022/08/06 00:59:03;;;;;;;;;;;;;;;31.06;37.24;94632.88;4951842;28;7279;-62
2022/08/06 01:01:32;;;;;;;;;;;;;;;31.06;36.74;94635.63;4967429;28;8918;-63
2022/08/06 01:03:58;;;;;;;;;;;;;;;31.07;37.13;94636.41;4967338;28;8750;-63
2022/08/06 01:06:24;;;;;;;;;;;;;;;31.06;37.72;94640.44;4966961;28;7218;-62
2022/08/06 01:08:50;;;;;;;;;;;;;;;31.06;36.78;94629.34;5041260;28;9633;-62
2022/08/06 01:11:20;;;;;;;;;;;;;;;31.06;37.18;94623.78;5067203;28;9055;-62
2022/08/06 01:14:12;;;;;;;;;;;;;;;31.05;36.98;94636.94;5052318;28;8820;-63
2022/08/06 01:17:00;;;;;;;;;;;;;;;31.05;36.77;94634.16;5046830;28;7553;-62
2022/08/06 01:19:57;;;;;;;;;;;;;;;31.04;36.64;94631.91;5053891;28;7277;-62
2022/08/06 01:22:53;;;;;;;;;;;;;;;31.03;37.34;94631.19;4954796;28;7500;-63
2022/08/06 01:25:34;;;;;;;;;;;;;;;31.03;37.30;94630.44;4956101;28;8766;-62
2022/08/06 01:28:07;;;;;;;;;;;;;;;31.02;36.56;94635.25;4963065;28;7511;-63
2022/08/06 01:30:46;;;;;;;;;;;;;;;31.01;37.12;94642.09;4945924;28;6929;-62
2022/08/06 01:33:33;;;;;;;;;;;;;;;31.02;36.51;94645.59;4960346;28;7232;-62
2022/08/06 01:36:24;;;;;;;;;;;;;;;31.01;37.33;94633.75;4963329;28;9265;-62
2022/08/06 01:39:06;;;;;;;;;;;;;;;31.01;36.84;94649.69;4947804;28;9035;-62
2022/08/06 01:42:10;;;;;;;;;;;;;;;30.99;37.50;94652.25;4961114;28;7393;-62
2022/08/06 01:44:56;;;;;;;;;;;;;;;30.99;37.36;94641.88;4932255;29;7235;-62
2022/08/06 01:47:26;;;;;;;;;;;;;;;30.98;37.62;94634.84;4949155;28;7061;-62
2022/08/06 01:49:57;;;;;;;;;;;;;;;30.99;37.20;94630.03;4918128;29;9244;-62
2022/08/06 01:52:39;;;;;;;;;;;;;;;30.98;37.04;94632.06;4917361;29;7191;-63
2022/08/06 01:55:09;;;;;;;;;;;;;;;30.97;37.58;94629.81;4928530;28;8898;-62
2022/08/06 01:57:39;;;;;;;;;;;;;;;30.97;37.52;94638.88;4933320;29;7280;-62
2022/08/06 02:00:38;;;;;;;;;;;;;;;30.97;36.67;94650.00;4979135;28;7009;-62
2022/08/06 02:03:47;;;;;;;;;;;;;;;30.98;37.03;94647.97;4989988;28;6991;-63
2022/08/06 02:06:34;;;;;;;;;;;;;;;30.99;37.71;94657.81;4917349;29;7313;-63
2022/08/06 02:09:22;;;;;;;;;;;;;;;30.96;36.75;94648.53;4915776;29;7344;-62
2022/08/06 02:12:25;;;;;;;;;;;;;;;30.95;36.73;94646.28;4946577;28;7665;-62
2022/08/06 02:15:09;;;;;;;;;;;;;;;30.94;37.63;94642.75;4912490;29;6970;-62
2022/08/06 02:17:46;;;;;;;;;;;;;;;30.93;37.18;94646.81;4913250;29;7396;-62
2022/08/06 02:20:45;;;;;;;;;;;;;;;30.94;36.68;94642.75;4914874;29;7268;-63
2022/08/06 02:23:17;;;;;;;;;;;;;;;30.92;37.53;94642.56;4914048;29;7211;-62
2022/08/06 02:25:48;;;;;;;;;;;;;;;30.93;37.83;94652.38;4915961;29;7846;-62
2022/08/06 02:28:20;;;;;;;;;;;;;;;30.91;37.29;94643.84;4914560;29;7208;-62
2022/08/06 02:30:51;;;;;;;;;;;;;;;30.93;36.87;94643.31;4905810;29;7228;-62
2022/08/06 02:33:27;;;;;;;;;;;;;;;30.92;37.02;94652.91;4914306;29;9080;-62
2022/08/06 02:36:14;;;;;;;;;;;;;;;30.90;37.64;94650.69;4912467;29;7171;-63
2022/08/06 02:38:59;;;;;;;;;;;;;;;30.91;37.61;94640.31;4911134;29;7237;-62
2022/08/06 02:42:10;;;;;;;;;;;;;;;30.92;37.14;94641.81;4972895;28;7275;-63
2022/08/06 02:45:03;;;;;;;;;;;;;;;30.91;37.12;94634.75;4931740;29;7272;-62
2022/08/06 02:48:12;;;;;;;;;;;;;;;30.89;36.62;94638.06;4929817;29;9557;-62
2022/08/06 02:51:11;;;;;;;;;;;;;;;30.90;36.41;94636.06;4988812;28;9691;-63
2022/08/06 02:54:03;;;;;;;;;;;;;;;30.89;37.45;94640.84;4878604;29;9190;-63
2022/08/06 02:56:46;;;;;;;;;;;;;;;30.86;36.72;94636.41;4887853;29;8213;-62
2022/08/06 02:59:21;;;;;;;;;;;;;;;30.88;36.61;94641.41;4877899;29;7247;-63
2022/08/06 03:02:00;;;;;;;;;;;;;;;30.87;36.54;94637.88;4869559;29;7207;-63
2022/08/06 03:04:42;;;;;;;;;;;;;;;30.88;37.16;94641.41;4878510;29;7237;-62
2022/08/06 03:07:14;;;;;;;;;;;;;;;30.86;37.12;94643.94;4881310;29;8246;-62
2022/08/06 03:09:47;;;;;;;;;;;;;;;30.87;37.35;94642.66;4881255;29;7369;-63
2022/08/06 03:12:19;;;;;;;;;;;;;;;30.86;37.60;94633.63;4897549;29;9055;-62
2022/08/06 03:14:59;;;;;;;;;;;;;;;30.86;37.13;94646.72;4897786;29;7242;-62
2022/08/06 03:17:31;;;;;;;;;;;;;;;30.87;36.86;94651.00;4897121;29;9134;-62
2022/08/06 03:20:20;;;;;;;;;;;;;;;30.83;37.45;94636.69;4880553;29;7197;-63
2022/08/06 03:22:55;;;;;;;;;;;;;;;30.86;37.18;94630.06;4937825;28;7002;-62
2022/08/06 03:25:26;;;;;;;;;;;;;;;30.85;36.99;94631.34;4938738;28;8873;-63
2022/08/06 03:27:54;;;;;;;;;;;;;;;30.85;37.55;94634.84;4955170;28;9166;-63
2022/08/06 03:30:21;;;;;;;;;;;;;;;30.85;36.78;94631.34;5012838;28;6919;-63
2022/08/06 03:32:53;;;;;;;;;;;;;;;30.85;36.96;94625.78;5069484;28;7031;-63
2022/08/06 03:35:40;;;;;;;;;;;;;;;30.85;37.28;94620.97;5074392;28;7258;-63
2022/08/06 03:38:11;;;;;;;;;;;;;;;30.84;37.04;94624.31;5052949;28;9482;-62
2022/08/06 03:41:03;;;;;;;;;;;;;;;30.84;36.73;94618.75;5073905;28;7181;-62
2022/08/06 03:43:40;;;;;;;;;;;;;;;30.82;37.79;94615.75;5071427;28;7248;-62
2022/08/06 03:46:22;;;;;;;;;;;;;;;30.83;37.68;94631.13;5046916;28;8435;-63
2022/08/06 03:48:56;;;;;;;;;;;;;;;30.83;37.69;94628.34;5050803;28;8137;-62
2022/08/06 03:51:36;;;;;;;;;;;;;;;30.82;37.19;94627.59;5074061;28;8819;-63
2022/08/06 03:54:10;;;;;;;;;;;;;;;30.82;37.19;94629.66;5056340;28;9136;-63
2022/08/06 03:56:57;;;;;;;;;;;;;;;30.82;36.81;94627.59;5071187;28;9374;-63
2022/08/06 03:59:26;;;;;;;;;;;;;;;30.82;36.73;94626.88;5053177;28;7995;-63
2022/08/06 04:01:56;;;;;;;;;;;;;;;30.82;36.75;94624.81;5053246;28;7012;-63
2022/08/06 04:04:25;;;;;;;;;;;;;;;30.81;37.19;94626.13;5050408;28;8918;-63
2022/08/06 04:06:58;;;;;;;;;;;;;;;30.81;37.61;94628.91;5070888;28;7013;-63
2022/08/06 04:09:27;;;;;;;;;;;;;;;30.82;37.17;94637.97;5046019;28;7234;-63
2022/08/06 04:11:55;;;;;;;;;;;;;;;30.80;36.92;94641.28;5067166;28;7284;-63
2022/08/06 04:14:24;;;;;;;;;;;;;;;30.81;37.23;94642.03;5046003;28;8673;-63
2022/08/06 04:16:52;;;;;;;;;;;;;;;30.81;37.41;94647.59;5045405;28;7611;-62
2022/08/06 04:19:22;;;;;;;;;;;;;;;30.82;37.09;94649.09;5051236;28;7351;-63
2022/08/06 04:21:52;;;;;;;;;;;;;;;30.80;37.76;94662.78;5068897;28;8826;-62
2022/08/06 04:24:19;;;;;;;;;;;;;;;30.81;37.70;94653.91;5041547;28;7288;-63
2022/08/06 04:26:51;;;;;;;;;;;;;;;30.80;37.60;94663.50;5050694;28;7348;-62
2022/08/06 04:29:22;;;;;;;;;;;;;;;30.78;37.55;94668.09;5050454;28;7229;-63
2022/08/06 04:31:52;;;;;;;;;;;;;;;30.77;37.67;94669.41;5042751;28;7787;-63
2022/08/06 04:34:23;;;;;;;;;;;;;;;30.77;38.02;94675.69;5042364;28;7170;-63
2022/08/06 04:36:54;;;;;;;;;;;;;;;30.77;36.75;94674.94;5050049;28;7208;-62
2022/08/06 04:39:22;;;;;;;;;;;;;;;30.77;36.95;94681.25;5067126;28;7147;-63
2022/08/06 04:41:58;;;;;;;;;;;;;;;30.77;37.11;94678.47;5069831;28;7119;-62
2022/08/06 04:44:27;;;;;;;;;;;;;;;30.77;36.89;94675.69;5055907;28;9183;-62
2022/08/06 04:47:12;;;;;;;;;;;;;;;30.76;36.71;94679.00;5054167;28;7279;-62
2022/08/06 04:49:45;;;;;;;;;;;;;;;30.76;37.44;94679.00;5047576;28;8779;-62
2022/08/06 04:52:30;;;;;;;;;;;;;;;30.75;36.77;94678.28;5056008;28;7040;-62
2022/08/06 04:54:58;;;;;;;;;;;;;;;30.77;36.84;94677.72;5054038;28;6998;-63
2022/08/06 04:57:23;;;;;;;;;;;;;;;30.76;37.93;94679.00;5055414;28;7428;-62
2022/08/06 04:59:49;;;;;;;;;;;;;;;30.75;37.29;94681.06;5071187;28;6998;-62
2022/08/06 05:02:25;;;;;;;;;;;;;;;30.77;37.84;94694.38;5073312;28;9121;-62
2022/08/06 05:05:48;;;;;;;;;;;;;;;30.76;37.88;94699.19;5055284;28;9187;-62
2022/08/06 05:08:29;;;;;;;;;;;;;;;30.76;37.08;94696.41;5048167;28;7294;-62
2022/08/06 05:11:18;;;;;;;;;;;;;;;30.75;37.36;94700.50;5059100;28;7206;-62
2022/08/06 05:14:02;;;;;;;;;;;;;;;30.74;37.58;94701.00;5072291;28;9149;-62
2022/08/06 05:16:46;;;;;;;;;;;;;;;30.74;37.06;94698.97;5070464;28;9059;-62
2022/08/06 05:19:42;;;;;;;;;;;;;;;30.74;37.27;94703.78;5071066;28;9849;-62
2022/08/06 05:22:30;;;;;;;;;;;;;;;30.75;37.82;94699.75;5049599;28;7200;-62
2022/08/06 05:25:00;;;;;;;;;;;;;;;30.73;37.64;94705.84;5053811;28;7748;-62
2022/08/06 05:27:26;;;;;;;;;;;;;;;30.74;36.99;94714.91;5053008;28;7096;-62
2022/08/06 05:29:55;;;;;;;;;;;;;;;30.71;36.84;94711.16;5049599;28;6964;-63
2022/08/06 05:32:39;;;;;;;;;;;;;;;30.71;37.80;94708.38;5070639;28;7223;-62
2022/08/06 05:35:07;;;;;;;;;;;;;;;30.72;37.30;94711.91;5045908;28;7063;-62
2022/08/06 05:37:41;;;;;;;;;;;;;;;30.71;37.43;94713.22;5046890;28;7146;-63
2022/08/06 05:40:11;;;;;;;;;;;;;;;30.70;37.94;94709.69;5045986;28;7192;-62
2022/08/06 05:42:37;;;;;;;;;;;;;;;30.71;37.33;94704.88;5067210;28;6994;-62
2022/08/06 05:45:10;;;;;;;;;;;;;;;30.70;37.84;94708.94;5066327;28;7211;-62
2022/08/06 05:47:44;;;;;;;;;;;;;;;30.70;37.51;94712.47;5049168;28;8476;-63
2022/08/06 05:50:20;;;;;;;;;;;;;;;30.70;37.38;94720.03;5042196;28;6855;-63
2022/08/06 05:53:04;;;;;;;;;;;;;;;30.71;36.91;94715.97;5048155;28;7495;-62
2022/08/06 05:56:04;;;;;;;;;;;;;;;30.68;37.07;94712.25;5038197;28;7267;-62
2022/08/06 05:58:39;;;;;;;;;;;;;;;30.68;36.93;94717.81;5065067;28;7163;-62
2022/08/06 06:01:09;;;;;;;;;;;;;;;30.68;37.34;94717.06;5065538;28;7001;-63
2022/08/06 06:03:40;;;;;;;;;;;;;;;30.69;37.51;94722.06;5066574;28;7001;-62
2022/08/06 06:06:06;;;;;;;;;;;;;;;30.68;37.41;94717.81;5041781;28;7502;-63
2022/08/06 06:08:51;;;;;;;;;;;;;;;30.67;37.49;94721.13;5069106;28;7689;-62
2022/08/06 06:11:28;;;;;;;;;;;;;;;30.67;37.31;94721.13;5052860;28;7246;-62
2022/08/06 06:14:29;;;;;;;;;;;;;;;30.67;37.02;94721.13;5043382;28;7011;-63
2022/08/06 06:17:22;;;;;;;;;;;;;;;30.68;37.60;94728.16;4993096;28;6983;-62
2022/08/06 06:20:19;;;;;;;;;;;;;;;30.64;36.99;94722.94;4969248;28;9231;-65
2022/08/06 06:22:59;;;;;;;;;;;;;;;30.66;36.46;94730.72;4945293;28;8941;-64
2022/08/06 06:25:33;;;;;;;;;;;;;;;30.68;37.07;94736.50;4952964;28;7198;-63
2022/08/06 06:28:30;;;;;;;;;;;;;;;30.67;37.40;94737.78;4962576;28;9385;-61
2022/08/06 06:31:15;;;;;;;;;;;;;;;30.66;36.81;94736.28;4944528;28;7166;-61
2022/08/06 06:34:10;;;;;;;;;;;;;;;30.70;36.57;94736.69;4939919;28;9079;-61
2022/08/06 06:37:03;;;;;;;;;;;;;;;30.72;37.51;94739.69;4925877;29;7228;-61
2022/08/06 06:39:39;;;;;;;;;;;;;;;30.71;36.68;94738.94;4939284;28;7253;-61
2022/08/06 06:42:08;;;;;;;;;;;;;;;30.75;36.44;94744.94;4926297;29;7268;-61
2022/08/06 06:44:49;;;;;;;;;;;;;;;30.76;37.17;94745.66;4924850;28;7235;-61
2022/08/06 06:47:21;;;;;;;;;;;;;;;30.77;36.12;94744.38;4940494;28;7278;-61
2022/08/06 06:50:17;;;;;;;;;;;;;;;30.77;36.17;94752.72;4921712;29;9122;-61
2022/08/06 06:52:48;;;;;;;;;;;;;;;30.77;36.21;94741.59;4943230;28;8000;-61
2022/08/06 06:55:30;;;;;;;;;;;;;;;30.77;36.60;94747.91;4950095;28;8809;-61
2022/08/06 06:58:14;;;;;;;;;;;;;;;30.77;36.51;94736.03;4964043;28;7299;-61
2022/08/06 07:00:43;;;;;;;;;;;;;;;30.77;35.95;94747.16;4978472;28;7423;-61
2022/08/06 07:03:12;;;;;;;;;;;;;;;30.77;36.51;94750.69;4985148;28;7216;-61
2022/08/06 07:05:46;;;;;;;;;;;;;;;30.77;36.88;94752.72;4977873;28;8808;-61
2022/08/06 07:08:18;;;;;;;;;;;;;;;30.77;35.88;94747.16;5012206;28;8761;-61
2022/08/06 07:10:48;;;;;;;;;;;;;;;30.77;36.69;94753.47;5047372;28;7276;-61
2022/08/06 07:13:17;;;;;;;;;;;;;;;30.77;35.99;94747.91;5065821;28;7037;-61
2022/08/06 07:15:48;;;;;;;;;;;;;;;30.77;36.39;94753.47;5069083;28;8186;-61
2022/08/06 07:18:20;;;;;;;;;;;;;;;30.75;36.75;94755.28;5069761;28;7349;-61
2022/08/06 07:20:48;;;;;;;;;;;;;;;30.75;35.94;94756.03;5045686;28;7244;-61
2022/08/06 07:23:16;;;;;;;;;;;;;;;30.77;36.76;94758.25;5059609;28;7185;-61
2022/08/06 07:25:47;;;;;;;;;;;;;;;30.77;36.54;94766.59;5052328;28;8931;-61
2022/08/06 07:28:14;;;;;;;;;;;;;;;30.77;35.85;94767.34;5050722;28;7232;-61
2022/08/06 07:30:43;;;;;;;;;;;;;;;30.77;36.51;94769.38;5041436;28;9079;-61
2022/08/06 07:33:22;;;;;;;;;;;;;;;30.76;35.38;94768.63;5069227;28;7211;-61
2022/08/06 07:35:50;;;;;;;;;;;;;;;30.77;36.05;94774.94;5049549;28;7305;-60
2022/08/06 07:38:23;;;;;;;;;;;;;;;30.75;36.63;94775.47;5049792;28;7237;-60
2022/08/06 07:40:57;;;;;;;;;;;;;;;30.76;35.83;94778.97;5049444;28;7212;-61
2022/08/06 07:43:30;;;;;;;;;;;;;;;30.76;36.05;94784.53;5040500;28;9361;-61
2022/08/06 07:46:00;;;;;;;;;;;;;;;30.75;35.58;94777.50;5050002;28;9280;-61
2022/08/06 07:48:38;;;;;;;;;;;;;;;30.75;35.49;94786.59;5041944;28;6996;-61
2022/08/06 07:51:09;;;;;;;;;;;;;;;30.74;35.69;94787.09;5051843;28;9113;-60
2022/08/06 07:53:41;;;;;;;;;;;;;;;30.75;35.49;94785.81;5063343;28;8709;-61
2022/08/06 07:56:09;;;;;;;;;;;;;;;30.74;36.20;94781.53;5053626;28;7935;-61
2022/08/06 07:58:37;;;;;;;;;;;;;;;30.75;35.75;94794.16;5046822;28;7262;-61
2022/08/06 08:01:05;;;;;;;;;;;;;;;30.73;35.46;94791.19;5070286;28;7233;-61
2022/08/06 08:06:23;;;;;;;;;;;;;;;30.71;35.28;94780.59;5072427;28;6988;-61
2022/08/06 08:08:56;;;;;;;;;;;;;;;30.72;36.25;94784.09;5052481;28;7346;-61
2022/08/06 08:11:24;;;;;;;;;;;;;;;30.73;35.60;94785.63;5071471;28;7224;-61
2022/08/06 08:13:58;;;;;;;;;;;;;;;30.75;35.60;94789.34;5053454;28;7175;-61
2022/08/06 08:16:29;;;;;;;;;;;;;;;30.74;35.89;94792.66;5070872;28;9374;-61
2022/08/06 08:18:57;;;;;;;;;;;;;;;30.73;35.94;94786.38;5069187;28;6919;-61
2022/08/06 08:21:27;;;;;;;;;;;;;;;30.72;35.39;94792.44;5070787;28;7233;-61
2022/08/06 08:23:57;;;;;;;;;;;;;;;30.73;35.42;94788.41;5044354;28;7186;-61
2022/08/06 08:26:23;;;;;;;;;;;;;;;30.71;35.16;94788.91;5071029;28;7050;-61
2022/08/06 08:28:51;;;;;;;;;;;;;;;30.70;36.00;94787.44;5053089;28;9083;-61
2022/08/06 08:31:19;;;;;;;;;;;;;;;30.70;35.15;94792.22;5071938;28;7185;-61
2022/08/06 08:33:52;;;;;;;;;;;;;;;30.65;36.07;94793.09;5044437;28;9111;-61
2022/08/06 08:36:23;;;;;;;;;;;;;;;30.63;36.21;94798.44;5045244;28;7661;-61
2022/08/06 08:38:52;;;;;;;;;;;;;;;30.60;35.46;94800.25;5052867;28;8912;-61
2022/08/06 08:42:02;;;;;;;;;;;;;;;30.58;35.75;94804.84;5046269;28;7004;-61
2022/08/06 08:44:30;;;;;;;;;;;;;;;30.59;35.92;94803.56;4955238;28;7322;-61
2022/08/06 08:46:58;;;;;;;;;;;;;;;30.58;36.03;94804.84;4970946;28;6988;-61
2022/08/06 08:49:41;;;;;;;;;;;;;;;30.57;34.96;94806.13;4971748;28;7228;-61
2022/08/06 08:52:12;;;;;;;;;;;;;;;30.57;35.37;94800.56;4954235;28;7239;-61
2022/08/06 08:54:45;;;;;;;;;;;;;;;30.54;35.22;94808.69;4954106;28;9583;-61
2022/08/06 08:57:17;;;;;;;;;;;;;;;30.56;35.60;94812.97;4954235;28;7562;-61
2022/08/06 08:59:48;;;;;;;;;;;;;;;30.52;35.63;94816.81;4954621;28;9114;-61
2022/08/06 09:02:29;;;;;;;;;;;;;;;30.53;35.39;94812.00;4970373;28;7248;-61
2022/08/06 09:04:58;;;;;;;;;;;;;;;30.52;34.75;94813.28;4971110;28;7226;-61
2022/08/06 09:07:33;;;;;;;;;;;;;;;30.50;35.04;94815.84;4971506;28;9066;-61
2022/08/06 09:10:07;;;;;;;;;;;;;;;30.51;35.63;94818.06;4969767;28;7054;-61
2022/08/06 09:13:09;;;;;;;;;;;;;;;30.50;34.82;94813.81;4969504;28;7017;-61
2022/08/06 09:15:45;;;;;;;;;;;;;;;30.51;35.38;94814.56;4878192;29;7204;-61
2022/08/06 09:18:12;;;;;;;;;;;;;;;30.51;35.05;94826.41;4893794;29;7020;-61
2022/08/06 09:20:48;;;;;;;;;;;;;;;30.51;35.47;94825.69;4939077;28;8919;-61
2022/08/06 09:23:43;;;;;;;;;;;;;;;30.50;35.23;94824.16;4952445;28;7237;-61
2022/08/06 09:26:09;;;;;;;;;;;;;;;30.49;35.94;94833.78;4932764;29;9168;-61
2022/08/06 09:28:37;;;;;;;;;;;;;;;30.50;35.95;94829.72;4915599;29;8162;-61
2022/08/06 09:31:08;;;;;;;;;;;;;;;30.50;34.93;94838.81;4931659;29;7207;-61
2022/08/06 09:33:39;;;;;;;;;;;;;;;30.51;35.35;94829.19;4916510;29;9180;-61
2022/08/06 09:36:14;;;;;;;;;;;;;;;30.49;35.50;94831.00;4915676;29;7233;-61
2022/08/06 09:38:56;;;;;;;;;;;;;;;30.49;34.90;94834.50;4916574;29;8826;-61
2022/08/06 09:41:34;;;;;;;;;;;;;;;30.47;35.27;94834.31;4932625;28;7041;-61
2022/08/06 09:44:11;;;;;;;;;;;;;;;30.47;35.07;94830.81;4915938;29;7142;-60
2022/08/06 09:46:41;;;;;;;;;;;;;;;30.49;34.71;94837.28;4916015;29;6988;-61
2022/08/06 09:49:12;;;;;;;;;;;;;;;30.50;35.03;94840.81;4916191;29;7025;-61
2022/08/06 09:51:40;;;;;;;;;;;;;;;30.49;35.22;94847.66;4970713;28;7255;-61
2022/08/06 09:54:18;;;;;;;;;;;;;;;30.48;34.85;94838.59;4972731;28;7119;-61
2022/08/06 09:56:45;;;;;;;;;;;;;;;30.50;35.72;94840.81;4973377;28;6997;-61
2022/08/06 09:59:20;;;;;;;;;;;;;;;30.49;35.45;94840.06;4972154;28;7174;-61
2022/08/06 10:01:48;;;;;;;;;;;;;;;30.48;35.94;94838.59;4972975;28;7489;-61
2022/08/06 10:04:27;;;;;;;;;;;;;;;30.48;34.62;94844.13;5049066;28;7008;-61
2022/08/06 10:06:56;;;;;;;;;;;;;;;30.48;35.51;94843.38;5067062;28;7262;-61
2022/08/06 10:09:26;;;;;;;;;;;;;;;30.48;35.53;94835.06;5041053;28;7238;-61
2022/08/06 10:11:53;;;;;;;;;;;;;;;30.47;35.83;94848.19;5048436;28;9584;-61
2022/08/06 10:14:31;;;;;;;;;;;;;;;30.48;35.69;94838.59;5065754;28;7372;-61
2022/08/06 10:17:17;;;;;;;;;;;;;;;30.47;35.50;94837.06;5066116;28;7282;-61
2022/08/06 10:20:04;;;;;;;;;;;;;;;30.47;35.12;94841.91;5052752;28;7164;-61
2022/08/06 10:22:30;;;;;;;;;;;;;;;30.48;35.27;94837.84;5045570;28;7237;-61
2022/08/06 10:25:02;;;;;;;;;;;;;;;30.47;35.72;94847.47;5067430;28;7425;-61
2022/08/06 10:27:37;;;;;;;;;;;;;;;30.48;35.46;94848.94;5057534;28;7453;-61
2022/08/06 10:30:06;;;;;;;;;;;;;;;30.45;34.76;94839.66;5063873;28;7034;-61
2022/08/06 10:32:58;;;;;;;;;;;;;;;30.46;35.46;94832.06;5065876;28;7356;-61
2022/08/06 10:35:28;;;;;;;;;;;;;;;30.45;35.08;94839.66;5066043;28;9045;-61
2022/08/06 10:38:06;;;;;;;;;;;;;;;30.45;35.65;94842.41;5067591;28;7012;-61
2022/08/06 10:40:37;;;;;;;;;;;;;;;30.45;35.95;94838.88;5039987;28;7159;-61
2022/08/06 10:43:06;;;;;;;;;;;;;;;30.44;35.13;94831.84;5048483;28;9595;-61
2022/08/06 10:45:37;;;;;;;;;;;;;;;30.45;35.49;94841.66;5039991;28;7241;-61
2022/08/06 10:48:04;;;;;;;;;;;;;;;30.45;35.83;94839.66;5047591;28;7272;-61
2022/08/06 10:50:30;;;;;;;;;;;;;;;30.46;35.56;94834.84;5040442;28;7259;-61
2022/08/06 10:52:57;;;;;;;;;;;;;;;30.46;35.09;94841.16;5057034;28;6990;-61
2022/08/06 10:55:24;;;;;;;;;;;;;;;30.47;35.79;94847.47;5048108;28;7246;-61
2022/08/06 10:57:53;;;;;;;;;;;;;;;30.47;35.18;94842.63;5064795;28;7017;-61
2022/08/06 11:00:24;;;;;;;;;;;;;;;30.48;35.52;94838.59;5047346;28;7250;-61
2022/08/06 11:03:14;;;;;;;;;;;;;;;30.48;35.15;94838.59;5067064;28;7574;-61
2022/08/06 11:06:00;;;;;;;;;;;;;;;30.50;35.12;94838.81;5068148;28;7237;-61
2022/08/06 11:08:26;;;;;;;;;;;;;;;30.49;35.63;94839.34;5042472;28;7207;-63
2022/08/06 11:11:51;;;;;;;;;;;;;;;30.49;35.36;94833.78;5061983;28;7250;-63
2022/08/06 11:14:20;;;;;;;;;;;;;;;30.48;35.18;94837.84;4986926;28;9284;-62
2022/08/06 11:17:06;;;;;;;;;;;;;;;30.45;35.25;94833.34;4967101;28;7309;-62
2022/08/06 11:19:42;;;;;;;;;;;;;;;30.41;35.47;94836.44;4964647;28;7105;-63
2022/08/06 11:22:36;;;;;;;;;;;;;;;30.39;35.60;94839.00;4968317;28;7249;-62
2022/08/06 11:25:11;;;;;;;;;;;;;;;30.36;36.69;94837.28;4946045;28;9408;-63
2022/08/06 11:27:52;;;;;;;;;;;;;;;30.31;36.53;94831.84;4934429;28;9074;-62
2022/08/06 11:30:20;;;;;;;;;;;;;;;30.26;36.27;94832.66;4951708;28;8792;-62
2022/08/06 11:32:50;;;;;;;;;;;;;;;30.21;37.12;94836.28;4935389;28;7673;-62
2022/08/06 11:35:34;;;;;;;;;;;;;;;30.19;36.49;94827.75;4947887;28;7194;-62
2022/08/06 11:38:04;;;;;;;;;;;;;;;30.17;37.05;94831.03;4934327;28;8372;-62
2022/08/06 11:41:01;;;;;;;;;;;;;;;30.18;37.12;94827.00;4951390;28;7387;-63
2022/08/06 11:43:51;;;;;;;;;;;;;;;30.30;36.84;94828.28;4934671;28;9405;-64
2022/08/06 11:46:25;;;;;;;;;;;;;;;30.29;36.83;94826.81;4933702;28;7244;-63
2022/08/06 11:48:59;;;;;;;;;;;;;;;30.25;36.65;94829.16;4985028;28;9090;-63
2022/08/06 11:51:52;;;;;;;;;;;;;;;30.18;37.29;94824.22;5003789;28;7174;-63
2022/08/06 11:54:38;;;;;;;;;;;;;;;30.13;37.43;94825.06;4987687;28;7311;-63
2022/08/06 11:57:11;;;;;;;;;;;;;;;30.11;36.81;94835.19;4983854;28;7389;-63
2022/08/06 11:59:43;;;;;;;;;;;;;;;30.06;37.25;94831.22;4997891;28;6866;-63
2022/08/06 12:02:15;;;;;;;;;;;;;;;30.01;36.94;94834.09;5015949;28;7094;-63
2022/08/06 12:04:47;;;;;;;;;;;;;;;30.00;37.16;94838.16;5042354;28;7499;-63
2022/08/06 12:07:16;;;;;;;;;;;;;;;29.98;38.05;94832.38;5041636;28;6956;-63
2022/08/06 12:10:07;;;;;;;;;;;;;;;29.93;36.83;94836.75;5063416;28;9348;-62
2022/08/06 12:12:42;;;;;;;;;;;;;;;29.91;37.56;94833.00;5046590;28;8856;-63
2022/08/06 12:15:11;;;;;;;;;;;;;;;29.89;37.20;94832.78;5047023;28;9562;-62
2022/08/06 12:17:42;;;;;;;;;;;;;;;29.85;36.65;94832.34;5063150;28;8878;-62
2022/08/06 12:20:08;;;;;;;;;;;;;;;29.82;37.08;94836.19;5065394;28;7219;-62
2022/08/06 12:22:36;;;;;;;;;;;;;;;29.77;37.42;94832.22;5047392;28;7253;-62
2022/08/06 12:25:06;;;;;;;;;;;;;;;29.72;37.02;94835.81;5038721;28;7264;-62
2022/08/06 12:27:36;;;;;;;;;;;;;;;29.72;37.58;94827.47;5064780;28;7274;-63
2022/08/06 12:30:04;;;;;;;;;;;;;;;29.68;37.74;94838.13;5039901;28;7277;-63
2022/08/06 12:32:35;;;;;;;;;;;;;;;29.61;37.70;94831.19;5063875;28;7229;-63
2022/08/06 12:35:08;;;;;;;;;;;;;;;29.63;37.89;94836.19;5046955;28;7249;-63
2022/08/06 12:37:40;;;;;;;;;;;;;;;29.63;37.60;94833.41;5063404;28;7234;-63
2022/08/06 12:40:29;;;;;;;;;;;;;;;29.62;37.80;94827.13;5064242;28;7251;-63
2022/08/06 12:43:01;;;;;;;;;;;;;;;29.61;37.26;94825.63;5039952;28;7508;-63
2022/08/06 12:45:31;;;;;;;;;;;;;;;29.60;37.35;94818.59;5065527;28;7278;-63
2022/08/06 12:48:00;;;;;;;;;;;;;;;29.57;38.07;94827.97;5042497;28;6989;-63
2022/08/06 12:50:28;;;;;;;;;;;;;;;29.57;38.20;94833.50;5043152;28;6986;-63
2022/08/06 12:53:13;;;;;;;;;;;;;;;29.57;37.52;94829.97;5057971;28;7173;-62
2022/08/06 12:56:00;;;;;;;;;;;;;;;29.57;37.53;94827.22;5046711;28;9096;-62
2022/08/06 12:58:33;;;;;;;;;;;;;;;29.51;37.24;94835.63;5043687;28;10135;-62
2022/08/06 13:01:01;;;;;;;;;;;;;;;29.48;37.68;94828.34;5047194;28;7254;-61
2022/08/06 13:03:37;;;;;;;;;;;;;;;29.42;38.15;94841.53;5041739;28;9069;-61
2022/08/06 13:06:06;;;;;;;;;;;;;;;29.35;37.62;94841.38;5063651;28;7229;-61
2022/08/06 13:08:36;;;;;;;;;;;;;;;29.26;37.46;94844.53;5065977;28;7253;-61
2022/08/06 13:11:03;;;;;;;;;;;;;;;29.24;37.48;94847.09;5042549;28;7647;-61
2022/08/06 13:13:41;;;;;;;;;;;;;;;29.22;37.51;94844.84;5046169;28;7325;-62
2022/08/06 13:16:19;;;;;;;;;;;;;;;29.16;37.98;94840.63;5044939;28;7426;-62
2022/08/06 13:19:15;;;;;;;;;;;;;;;29.16;37.73;94835.06;5050180;28;7487;-61
2022/08/06 13:21:44;;;;;;;;;;;;;;;29.16;38.05;94835.88;5066653;28;7312;-61
2022/08/06 13:24:12;;;;;;;;;;;;;;;29.19;38.23;94843.09;5045354;28;6867;-61
2022/08/06 13:26:50;;;;;;;;;;;;;;;29.22;37.88;94838.53;5048176;28;6984;-61
2022/08/06 13:29:22;;;;;;;;;;;;;;;29.24;37.87;94836.00;5069058;28;8774;-61
2022/08/06 13:32:00;;;;;;;;;;;;;;;29.27;37.44;94835.72;5070462;28;9147;-61
2022/08/06 13:34:45;;;;;;;;;;;;;;;29.31;37.28;94824.31;5046571;28;7186;-61
2022/08/06 13:37:12;;;;;;;;;;;;;;;29.34;37.28;94828.81;5064679;28;7031;-61
2022/08/06 13:39:56;;;;;;;;;;;;;;;29.37;36.96;94833.28;5068993;28;7392;-61
2022/08/06 13:42:26;;;;;;;;;;;;;;;29.38;37.31;94830.03;5044520;28;7404;-62
2022/08/06 13:44:53;;;;;;;;;;;;;;;29.39;37.90;94828.72;5049136;28;7548;-61
2022/08/06 13:50:43;;;;;;;;;;;;;;;29.38;37.11;94820.94;5066461;28;7906;-61